sensor_id;sensor_type;location;lat;lon;timestamp;pressure;altitude;pressure_sealevel;temperature;humidity
48968;BME280;46511;53.148;8.204;2023-04-07T00:00:13;101565.72;;;10.41;100.00
48968;BME280;46511;53.148;8.204;2023-04-07T00:02:45;101576.28;;;10.22;100.00
48968;BME280;46511;53.148;8.204;2023-04-07T00:05:18;101569.84;;;10.27;100.00
48968;BME280;46511;53.148;8.204;2023-04-07T00:07:50;101581.94;;;10.13;100.00
48968;BME280;46511;53.148;8.204;2023-04-07T00:10:21;101583.34;;;10.21;100.00
48968;BME280;46511;53.148;8.204;2023-04-07T00:12:52;101577.75;;;10.29;100.00
48968;BME280;46511;53.148;8.204;2023-04-07T00:15:24;101573.59;;;10.23;100.00
48968;BME280;46511;53.148;8.204;2023-04-07T00:17:55;101571.88;;;10.21;100.00
48968;BME280;46511;53.148;8.204;2023-04-07T00:20:26;101566.63;;;10.19;100.00
48968;BME280;46511;53.148;8.204;2023-04-07T00:22:58;101567.50;;;10.20;100.00
48968;BME280;46511;53.148;8.204;2023-04-07T00:25:29;101571.31;;;10.13;100.00
48968;BME280;46511;53.148;8.204;2023-04-07T00:28:01;101575.06;;;10.09;100.00
48968;BME280;46511;53.148;8.204;2023-04-07T00:30:32;101573.56;;;10.01;100.00
48968;BME280;46511;53.148;8.204;2023-04-07T00:33:03;101569.44;;;9.94;100.00
48968;BME280;46511;53.148;8.204;2023-04-07T00:35:34;101570.66;;;9.87;100.00
48968;BME280;46511;53.148;8.204;2023-04-07T00:38:06;101574.59;;;9.77;100.00
48968;BME280;46511;53.148;8.204;2023-04-07T00:40:37;101570.09;;;9.79;100.00
48968;BME280;46511;53.148;8.204;2023-04-07T00:43:08;101571.25;;;9.72;100.00
48968;BME280;46511;53.148;8.204;2023-04-07T00:45:40;101571.50;;;9.44;100.00
48968;BME280;46511;53.148;8.204;2023-04-07T00:48:11;101574.38;;;9.38;100.00
48968;BME280;46511;53.148;8.204;2023-04-07T00:50:44;101568.69;;;9.49;100.00
48968;BME280;46511;53.148;8.204;2023-04-07T00:53:16;101565.47;;;9.40;100.00
48968;BME280;46511;53.148;8.204;2023-04-07T00:55:47;101566.69;;;9.32;100.00
48968;BME280;46511;53.148;8.204;2023-04-07T00:58:19;101564.53;;;9.18;100.00
48968;BME280;46511;53.148;8.204;2023-04-07T01:01:06;101567.09;;;9.21;100.00
48968;BME280;46511;53.148;8.204;2023-04-07T01:03:55;101565.25;;;9.00;100.00
48968;BME280;46511;53.148;8.204;2023-04-07T01:06:32;101560.53;;;9.08;100.00
48968;BME280;46511;53.148;8.204;2023-04-07T01:09:24;101560.66;;;9.05;100.00
48968;BME280;46511;53.148;8.204;2023-04-07T01:12:06;101560.72;;;9.03;100.00
48968;BME280;46511;53.148;8.204;2023-04-07T01:14:46;101564.84;;;8.87;100.00
48968;BME280;46511;53.148;8.204;2023-04-07T01:17:24;101570.88;;;8.91;100.00
48968;BME280;46511;53.148;8.204;2023-04-07T01:20:04;101568.59;;;9.05;100.00
48968;BME280;46511;53.148;8.204;2023-04-07T01:22:42;101570.34;;;8.82;100.00
48968;BME280;46511;53.148;8.204;2023-04-07T01:28:14;101567.44;;;8.88;100.00
48968;BME280;46511;53.148;8.204;2023-04-07T01:31:14;101560.88;;;8.99;100.00
48968;BME280;46511;53.148;8.204;2023-04-07T01:33:47;101561.78;;;8.98;100.00
48968;BME280;46511;53.148;8.204;2023-04-07T01:36:20;101559.22;;;8.96;100.00
48968;BME280;46511;53.148;8.204;2023-04-07T01:38:52;101563.00;;;9.12;100.00
48968;BME280;46511;53.148;8.204;2023-04-07T01:41:24;101573.78;;;9.08;100.00
48968;BME280;46511;53.148;8.204;2023-04-07T01:43:56;101572.06;;;9.07;100.00
48968;BME280;46511;53.148;8.204;2023-04-07T01:46:30;101566.66;;;9.10;100.00
48968;BME280;46511;53.148;8.204;2023-04-07T01:49:02;101557.88;;;9.08;100.00
48968;BME280;46511;53.148;8.204;2023-04-07T01:51:35;101565.66;;;9.12;100.00
48968;BME280;46511;53.148;8.204;2023-04-07T01:54:07;101576.66;;;8.78;100.00
48968;BME280;46511;53.148;8.204;2023-04-07T01:56:39;101570.13;;;8.39;100.00
48968;BME280;46511;53.148;8.204;2023-04-07T01:59:10;101562.47;;;8.56;100.00
48968;BME280;46511;53.148;8.204;2023-04-07T02:01:42;101568.69;;;8.55;100.00
48968;BME280;46511;53.148;8.204;2023-04-07T02:04:19;101569.72;;;8.24;100.00
48968;BME280;46511;53.148;8.204;2023-04-07T02:06:59;101566.50;;;8.41;100.00
48968;BME280;46511;53.148;8.204;2023-04-07T02:09:37;101565.94;;;8.31;100.00
48968;BME280;46511;53.148;8.204;2023-04-07T02:12:11;101576.03;;;8.47;100.00
48968;BME280;46511;53.148;8.204;2023-04-07T02:14:44;101561.66;;;8.54;100.00
48968;BME280;46511;53.148;8.204;2023-04-07T02:17:16;101566.97;;;8.54;100.00
48968;BME280;46511;53.148;8.204;2023-04-07T02:19:49;101572.25;;;8.27;100.00
48968;BME280;46511;53.148;8.204;2023-04-07T02:22:22;101571.34;;;8.28;100.00
48968;BME280;46511;53.148;8.204;2023-04-07T02:24:53;101561.19;;;8.16;100.00
48968;BME280;46511;53.148;8.204;2023-04-07T02:27:25;101576.38;;;7.83;100.00
48968;BME280;46511;53.148;8.204;2023-04-07T02:29:56;101566.69;;;8.10;100.00
48968;BME280;46511;53.148;8.204;2023-04-07T02:32:27;101569.44;;;7.81;100.00
48968;BME280;46511;53.148;8.204;2023-04-07T02:34:58;101570.09;;;7.87;100.00
48968;BME280;46511;53.148;8.204;2023-04-07T02:37:30;101566.97;;;7.74;100.00
48968;BME280;46511;53.148;8.204;2023-04-07T02:40:02;101570.97;;;7.88;100.00
48968;BME280;46511;53.148;8.204;2023-04-07T02:42:34;101576.44;;;7.82;100.00
48968;BME280;46511;53.148;8.204;2023-04-07T02:45:06;101571.44;;;7.72;100.00
48968;BME280;46511;53.148;8.204;2023-04-07T02:47:39;101573.13;;;7.75;100.00
48968;BME280;46511;53.148;8.204;2023-04-07T02:50:10;101566.28;;;7.69;100.00
48968;BME280;46511;53.148;8.204;2023-04-07T02:52:41;101575.59;;;7.53;100.00
48968;BME280;46511;53.148;8.204;2023-04-07T02:55:13;101573.97;;;7.49;100.00
48968;BME280;46511;53.148;8.204;2023-04-07T02:57:44;101571.25;;;7.23;100.00
48968;BME280;46511;53.148;8.204;2023-04-07T03:00:15;101575.13;;;7.40;100.00
48968;BME280;46511;53.148;8.204;2023-04-07T03:02:47;101575.94;;;7.70;100.00
48968;BME280;46511;53.148;8.204;2023-04-07T03:05:18;101580.53;;;7.06;100.00
48968;BME280;46511;53.148;8.204;2023-04-07T03:07:49;101583.72;;;7.18;100.00
48968;BME280;46511;53.148;8.204;2023-04-07T03:10:21;101576.16;;;7.35;100.00
48968;BME280;46511;53.148;8.204;2023-04-07T03:12:52;101576.91;;;7.40;100.00
48968;BME280;46511;53.148;8.204;2023-04-07T03:15:23;101581.63;;;7.29;100.00
48968;BME280;46511;53.148;8.204;2023-04-07T03:17:54;101588.66;;;7.30;100.00
48968;BME280;46511;53.148;8.204;2023-04-07T03:20:26;101579.16;;;7.52;99.88
48968;BME280;46511;53.148;8.204;2023-04-07T03:22:57;101579.81;;;7.31;99.76
48968;BME280;46511;53.148;8.204;2023-04-07T03:25:28;101579.25;;;7.49;99.89
48968;BME280;46511;53.148;8.204;2023-04-07T03:27:59;101572.72;;;7.61;98.57
48968;BME280;46511;53.148;8.204;2023-04-07T03:30:31;101573.41;;;7.39;99.83
48968;BME280;46511;53.148;8.204;2023-04-07T03:33:02;101563.88;;;7.62;99.56
48968;BME280;46511;53.148;8.204;2023-04-07T03:35:33;101563.41;;;7.49;98.41
48968;BME280;46511;53.148;8.204;2023-04-07T03:38:05;101569.16;;;7.34;99.41
48968;BME280;46511;53.148;8.204;2023-04-07T03:40:36;101568.22;;;7.35;99.71
48968;BME280;46511;53.148;8.204;2023-04-07T03:43:07;101569.03;;;7.37;99.88
48968;BME280;46511;53.148;8.204;2023-04-07T03:45:42;101575.59;;;7.53;99.44
48968;BME280;46511;53.148;8.204;2023-04-07T03:48:13;101567.22;;;7.67;97.89
48968;BME280;46511;53.148;8.204;2023-04-07T03:50:45;101564.56;;;7.39;98.43
48968;BME280;46511;53.148;8.204;2023-04-07T03:53:16;101572.72;;;7.33;99.41
48968;BME280;46511;53.148;8.204;2023-04-07T03:55:44;101572.56;;;7.37;98.67
48968;BME280;46511;53.148;8.204;2023-04-07T03:58:15;101579.13;;;7.24;99.63
48968;BME280;46511;53.148;8.204;2023-04-07T04:00:47;101583.56;;;7.24;100.00
48968;BME280;46511;53.148;8.204;2023-04-07T04:03:18;101579.81;;;7.31;99.69
48968;BME280;46511;53.148;8.204;2023-04-07T04:05:49;101582.91;;;7.15;100.00
48968;BME280;46511;53.148;8.204;2023-04-07T04:08:20;101576.72;;;7.16;99.53
48968;BME280;46511;53.148;8.204;2023-04-07T04:10:52;101587.38;;;7.13;99.94
48968;BME280;46511;53.148;8.204;2023-04-07T04:13:23;101596.50;;;7.03;99.86
48968;BME280;46511;53.148;8.204;2023-04-07T04:15:54;101597.69;;;6.93;100.00
48968;BME280;46511;53.148;8.204;2023-04-07T04:18:26;101592.25;;;6.67;100.00
48968;BME280;46511;53.148;8.204;2023-04-07T04:20:57;101599.09;;;6.74;99.39
48968;BME280;46511;53.148;8.204;2023-04-07T04:23:28;101595.94;;;6.92;100.00
48968;BME280;46511;53.148;8.204;2023-04-07T04:26:00;101599.41;;;6.94;98.48
48968;BME280;46511;53.148;8.204;2023-04-07T04:28:33;101602.22;;;6.88;98.28
48968;BME280;46511;53.148;8.204;2023-04-07T04:31:04;101595.44;;;7.09;97.18
48968;BME280;46511;53.148;8.204;2023-04-07T04:33:36;101603.03;;;6.90;99.26
48968;BME280;46511;53.148;8.204;2023-04-07T04:36:07;101609.13;;;6.61;99.84
48968;BME280;46511;53.148;8.204;2023-04-07T04:38:38;101609.66;;;6.74;100.00
48968;BME280;46511;53.148;8.204;2023-04-07T04:41:10;101615.31;;;6.93;99.93
48968;BME280;46511;53.148;8.204;2023-04-07T04:43:41;101613.03;;;6.79;99.48
48968;BME280;46511;53.148;8.204;2023-04-07T04:46:12;101615.97;;;6.68;100.00
48968;BME280;46511;53.148;8.204;2023-04-07T04:48:44;101616.47;;;6.81;99.83
48968;BME280;46511;53.148;8.204;2023-04-07T04:51:15;101627.50;;;6.66;99.07
48968;BME280;46511;53.148;8.204;2023-04-07T04:53:46;101622.63;;;6.81;100.00
48968;BME280;46511;53.148;8.204;2023-04-07T04:56:17;101624.66;;;7.04;99.62
48968;BME280;46511;53.148;8.204;2023-04-07T04:58:49;101629.63;;;6.84;100.00
48968;BME280;46511;53.148;8.204;2023-04-07T05:01:20;101624.03;;;6.95;99.68
48968;BME280;46511;53.148;8.204;2023-04-07T05:03:51;101624.41;;;6.82;99.07
48968;BME280;46511;53.148;8.204;2023-04-07T05:06:22;101627.50;;;6.97;99.39
48968;BME280;46511;53.148;8.204;2023-04-07T05:08:54;101634.72;;;6.90;99.59
48968;BME280;46511;53.148;8.204;2023-04-07T05:11:25;101647.53;;;7.35;97.57
48968;BME280;46511;53.148;8.204;2023-04-07T05:13:56;101642.06;;;7.11;98.13
48968;BME280;46511;53.148;8.204;2023-04-07T05:16:27;101641.72;;;6.91;98.94
48968;BME280;46511;53.148;8.204;2023-04-07T05:18:59;101654.56;;;6.74;99.76
48968;BME280;46511;53.148;8.204;2023-04-07T05:21:30;101651.41;;;6.92;98.62
48968;BME280;46511;53.148;8.204;2023-04-07T05:24:01;101652.22;;;6.94;99.22
48968;BME280;46511;53.148;8.204;2023-04-07T05:26:33;101644.78;;;7.38;94.59
48968;BME280;46511;53.148;8.204;2023-04-07T05:29:04;101662.75;;;7.27;95.25
48968;BME280;46511;53.148;8.204;2023-04-07T05:31:35;101658.75;;;7.43;93.45
48968;BME280;46511;53.148;8.204;2023-04-07T05:34:07;101670.47;;;7.03;94.12
48968;BME280;46511;53.148;8.204;2023-04-07T05:36:38;101664.19;;;7.07;95.43
48968;BME280;46511;53.148;8.204;2023-04-07T05:39:09;101669.16;;;7.18;92.30
48968;BME280;46511;53.148;8.204;2023-04-07T05:41:41;101657.41;;;8.14;87.86
48968;BME280;46511;53.148;8.204;2023-04-07T05:44:12;101666.16;;;8.44;78.58
48968;BME280;46511;53.148;8.204;2023-04-07T05:46:43;101663.91;;;9.31;75.07
48968;BME280;46511;53.148;8.204;2023-04-07T05:49:14;101663.47;;;8.70;76.72
48968;BME280;46511;53.148;8.204;2023-04-07T05:51:46;101666.19;;;7.88;82.51
48968;BME280;46511;53.148;8.204;2023-04-07T05:54:17;101669.22;;;7.46;90.22
48968;BME280;46511;53.148;8.204;2023-04-07T05:56:48;101673.22;;;9.18;76.67
48968;BME280;46511;53.148;8.204;2023-04-07T05:59:20;101680.03;;;8.77;76.00
48968;BME280;46511;53.148;8.204;2023-04-07T06:01:51;101677.66;;;10.53;66.67
48968;BME280;46511;53.148;8.204;2023-04-07T06:04:23;101690.06;;;10.53;61.39
48968;BME280;46511;53.148;8.204;2023-04-07T06:06:54;101690.66;;;10.80;59.41
48968;BME280;46511;53.148;8.204;2023-04-07T06:09:25;101677.00;;;12.05;57.07
48968;BME280;46511;53.148;8.204;2023-04-07T06:11:57;101678.03;;;12.20;54.57
48968;BME280;46511;53.148;8.204;2023-04-07T06:14:28;101686.97;;;13.71;49.44
48968;BME280;46511;53.148;8.204;2023-04-07T06:17:00;101683.09;;;14.09;47.04
48968;BME280;46511;53.148;8.204;2023-04-07T06:19:32;101686.69;;;13.44;46.72
48968;BME280;46511;53.148;8.204;2023-04-07T06:22:03;101684.25;;;14.05;45.82
48968;BME280;46511;53.148;8.204;2023-04-07T06:24:34;101690.69;;;14.16;45.78
48968;BME280;46511;53.148;8.204;2023-04-07T06:27:06;101699.06;;;13.79;46.21
48968;BME280;46511;53.148;8.204;2023-04-07T06:29:37;101700.56;;;13.51;46.49
48968;BME280;46511;53.148;8.204;2023-04-07T06:32:10;101695.50;;;14.10;45.70
48968;BME280;46511;53.148;8.204;2023-04-07T06:34:41;101701.91;;;13.91;45.76
48968;BME280;46511;53.148;8.204;2023-04-07T06:37:12;101707.84;;;14.74;43.85
48968;BME280;46511;53.148;8.204;2023-04-07T06:39:43;101702.59;;;15.59;42.77
48968;BME280;46511;53.148;8.204;2023-04-07T06:42:15;101713.84;;;14.63;43.41
48968;BME280;46511;53.148;8.204;2023-04-07T06:44:46;101714.84;;;15.92;41.05
48968;BME280;46511;53.148;8.204;2023-04-07T06:47:17;101713.84;;;16.61;40.64
48968;BME280;46511;53.148;8.204;2023-04-07T06:49:49;101721.91;;;15.50;41.51
48968;BME280;46511;53.148;8.204;2023-04-07T06:52:20;101717.91;;;15.43;41.39
48968;BME280;46511;53.148;8.204;2023-04-07T06:54:51;101721.34;;;18.45;36.49
48968;BME280;46511;53.148;8.204;2023-04-07T06:57:23;101715.78;;;21.25;32.39
48968;BME280;46511;53.148;8.204;2023-04-07T06:59:54;101722.09;;;18.23;34.03
48968;BME280;46511;53.148;8.204;2023-04-07T07:02:25;101730.91;;;18.97;34.23
48968;BME280;46511;53.148;8.204;2023-04-07T07:04:56;101733.75;;;17.36;36.00
48968;BME280;46511;53.148;8.204;2023-04-07T07:07:28;101727.94;;;19.58;33.13
48968;BME280;46511;53.148;8.204;2023-04-07T07:09:59;101724.94;;;20.92;30.76
48968;BME280;46511;53.148;8.204;2023-04-07T07:12:30;101728.88;;;20.67;31.12
48968;BME280;46511;53.148;8.204;2023-04-07T07:15:03;101731.88;;;20.53;31.21
48968;BME280;46511;53.148;8.204;2023-04-07T07:17:34;101743.50;;;19.65;32.68
48968;BME280;46511;53.148;8.204;2023-04-07T07:20:06;101744.94;;;18.90;33.54
48968;BME280;46511;53.148;8.204;2023-04-07T07:22:38;101739.63;;;18.53;33.78
48968;BME280;46511;53.148;8.204;2023-04-07T07:25:09;101749.56;;;18.16;34.53
48968;BME280;46511;53.148;8.204;2023-04-07T07:27:40;101755.91;;;18.15;34.87
48968;BME280;46511;53.148;8.204;2023-04-07T07:30:12;101754.84;;;20.79;31.98
48968;BME280;46511;53.148;8.204;2023-04-07T07:32:43;101758.63;;;18.63;33.30
48968;BME280;46511;53.148;8.204;2023-04-07T07:35:14;101754.16;;;18.50;34.74
48968;BME280;46511;53.148;8.204;2023-04-07T07:37:46;101767.31;;;18.06;34.72
48968;BME280;46511;53.148;8.204;2023-04-07T07:40:17;101761.72;;;19.39;32.81
48968;BME280;46511;53.148;8.204;2023-04-07T07:42:48;101772.22;;;19.31;32.95
48968;BME280;46511;53.148;8.204;2023-04-07T07:45:20;101766.72;;;18.26;34.12
48968;BME280;46511;53.148;8.204;2023-04-07T07:47:51;101768.63;;;19.08;33.99
48968;BME280;46511;53.148;8.204;2023-04-07T07:50:22;101772.47;;;18.09;34.88
48968;BME280;46511;53.148;8.204;2023-04-07T07:52:53;101774.22;;;20.85;31.83
48968;BME280;46511;53.148;8.204;2023-04-07T07:55:25;101772.31;;;21.17;30.02
48968;BME280;46511;53.148;8.204;2023-04-07T07:57:56;101776.31;;;20.81;31.31
48968;BME280;46511;53.148;8.204;2023-04-07T08:00:27;101777.72;;;21.59;29.54
48968;BME280;46511;53.148;8.204;2023-04-07T08:02:58;101777.72;;;21.17;30.26
48968;BME280;46511;53.148;8.204;2023-04-07T08:05:30;101772.63;;;20.50;30.80
48968;BME280;46511;53.148;8.204;2023-04-07T08:08:01;101784.44;;;20.04;31.22
48968;BME280;46511;53.148;8.204;2023-04-07T08:10:33;101783.72;;;20.02;32.06
48968;BME280;46511;53.148;8.204;2023-04-07T08:13:04;101786.91;;;19.27;33.22
48968;BME280;46511;53.148;8.204;2023-04-07T08:15:36;101781.69;;;19.48;33.94
48968;BME280;46511;53.148;8.204;2023-04-07T08:18:07;101788.75;;;19.27;34.52
48968;BME280;46511;53.148;8.204;2023-04-07T08:20:38;101780.47;;;21.38;31.36
48968;BME280;46511;53.148;8.204;2023-04-07T08:23:10;101778.66;;;19.53;33.39
48968;BME280;46511;53.148;8.204;2023-04-07T08:25:41;101781.16;;;20.01;33.19
48968;BME280;46511;53.148;8.204;2023-04-07T08:28:12;101777.28;;;20.48;32.16
48968;BME280;46511;53.148;8.204;2023-04-07T08:30:43;101791.31;;;19.75;34.00
48968;BME280;46511;53.148;8.204;2023-04-07T08:33:15;101777.84;;;20.95;31.81
48968;BME280;46511;53.148;8.204;2023-04-07T08:35:46;101775.53;;;21.11;31.20
48968;BME280;46511;53.148;8.204;2023-04-07T08:38:17;101781.25;;;19.65;33.28
48968;BME280;46511;53.148;8.204;2023-04-07T08:40:50;101786.25;;;19.59;34.19
48968;BME280;46511;53.148;8.204;2023-04-07T08:43:26;101780.91;;;20.69;32.59
48968;BME280;46511;53.148;8.204;2023-04-07T08:45:59;101777.25;;;21.12;33.15
48968;BME280;46511;53.148;8.204;2023-04-07T08:48:32;101780.97;;;24.61;29.16
48968;BME280;46511;53.148;8.204;2023-04-07T08:51:05;101778.22;;;22.64;29.98
48968;BME280;46511;53.148;8.204;2023-04-07T08:53:47;101792.13;;;20.86;32.61
48968;BME280;46511;53.148;8.204;2023-04-07T08:56:22;101787.16;;;21.64;32.25
48968;BME280;46511;53.148;8.204;2023-04-07T08:58:55;101791.16;;;22.41;30.10
48968;BME280;46511;53.148;8.204;2023-04-07T09:01:27;101793.34;;;22.07;29.95
48968;BME280;46511;53.148;8.204;2023-04-07T09:04:00;101800.00;;;19.56;32.93
48968;BME280;46511;53.148;8.204;2023-04-07T09:06:33;101796.84;;;21.25;32.57
48968;BME280;46511;53.148;8.204;2023-04-07T09:09:05;101798.31;;;22.51;30.79
48968;BME280;46511;53.148;8.204;2023-04-07T09:11:37;101790.69;;;21.34;31.26
48968;BME280;46511;53.148;8.204;2023-04-07T09:14:09;101796.06;;;22.66;29.81
48968;BME280;46511;53.148;8.204;2023-04-07T09:16:41;101798.22;;;23.87;28.03
48968;BME280;46511;53.148;8.204;2023-04-07T09:19:12;101791.00;;;24.78;25.30
48968;BME280;46511;53.148;8.204;2023-04-07T09:21:47;101800.09;;;23.11;26.46
48968;BME280;46511;53.148;8.204;2023-04-07T09:24:23;101803.75;;;23.48;25.79
48968;BME280;46511;53.148;8.204;2023-04-07T09:27:15;101790.44;;;24.39;24.39
48968;BME280;46511;53.148;8.204;2023-04-07T09:29:48;101807.34;;;22.12;26.06
48968;BME280;46511;53.148;8.204;2023-04-07T09:32:35;101802.91;;;23.38;23.36
48968;BME280;46511;53.148;8.204;2023-04-07T09:35:11;101800.78;;;21.21;25.32
48968;BME280;46511;53.148;8.204;2023-04-07T09:37:42;101795.47;;;22.63;24.19
48968;BME280;46511;53.148;8.204;2023-04-07T09:40:24;101799.53;;;23.17;23.20
48968;BME280;46511;53.148;8.204;2023-04-07T09:42:56;101802.13;;;23.75;22.60
48968;BME280;46511;53.148;8.204;2023-04-07T09:45:31;101793.66;;;22.92;22.92
48968;BME280;46511;53.148;8.204;2023-04-07T09:48:08;101798.03;;;24.26;21.90
48968;BME280;46511;53.148;8.204;2023-04-07T09:50:49;101795.72;;;23.56;22.28
48968;BME280;46511;53.148;8.204;2023-04-07T09:53:26;101794.59;;;23.49;22.42
48968;BME280;46511;53.148;8.204;2023-04-07T09:56:12;101803.06;;;23.93;22.22
48968;BME280;46511;53.148;8.204;2023-04-07T09:58:46;101787.84;;;23.06;23.24
48968;BME280;46511;53.148;8.204;2023-04-07T10:01:19;101795.28;;;24.45;21.63
48968;BME280;46511;53.148;8.204;2023-04-07T10:03:51;101796.53;;;23.86;21.99
48968;BME280;46511;53.148;8.204;2023-04-07T10:06:23;101782.97;;;25.74;20.34
48968;BME280;46511;53.148;8.204;2023-04-07T10:08:55;101791.22;;;26.32;20.20
48968;BME280;46511;53.148;8.204;2023-04-07T10:11:26;101794.44;;;26.86;19.75
48968;BME280;46511;53.148;8.204;2023-04-07T10:13:58;101810.47;;;23.44;21.62
48968;BME280;46511;53.148;8.204;2023-04-07T10:16:29;101809.47;;;23.45;22.40
48968;BME280;46511;53.148;8.204;2023-04-07T10:19:01;101811.22;;;23.93;21.49
48968;BME280;46511;53.148;8.204;2023-04-07T10:21:33;101803.78;;;23.19;22.22
48968;BME280;46511;53.148;8.204;2023-04-07T10:24:12;101811.78;;;23.01;22.57
48968;BME280;46511;53.148;8.204;2023-04-07T10:26:59;101819.66;;;21.74;23.08
48968;BME280;46511;53.148;8.204;2023-04-07T10:29:34;101823.03;;;21.66;23.80
48968;BME280;46511;53.148;8.204;2023-04-07T10:32:10;101824.78;;;22.29;23.14
48968;BME280;46511;53.148;8.204;2023-04-07T10:37:27;101816.03;;;23.62;21.73
48968;BME280;46511;53.148;8.204;2023-04-07T10:42:48;101820.06;;;24.77;20.73
48968;BME280;46511;53.148;8.204;2023-04-07T10:45:51;101825.44;;;23.48;22.35
48968;BME280;46511;53.148;8.204;2023-04-07T10:48:17;101814.84;;;23.74;22.09
48968;BME280;46511;53.148;8.204;2023-04-07T10:53:36;101817.38;;;25.39;20.56
48968;BME280;46511;53.148;8.204;2023-04-07T10:56:08;101813.41;;;25.77;20.48
48968;BME280;46511;53.148;8.204;2023-04-07T10:58:39;101821.78;;;26.44;19.48
48968;BME280;46511;53.148;8.204;2023-04-07T11:03:51;101824.13;;;22.56;22.83
48968;BME280;46511;53.148;8.204;2023-04-07T11:06:24;101820.31;;;24.39;21.09
48968;BME280;46511;53.148;8.204;2023-04-07T11:08:57;101834.00;;;24.47;21.11
48968;BME280;46511;53.148;8.204;2023-04-07T11:11:38;101835.50;;;24.32;21.24
48968;BME280;46511;53.148;8.204;2023-04-07T11:14:10;101836.72;;;24.47;20.13
48968;BME280;46511;53.148;8.204;2023-04-07T11:16:42;101835.16;;;23.51;21.37
48968;BME280;46511;53.148;8.204;2023-04-07T11:19:13;101832.34;;;22.94;21.78
48968;BME280;46511;53.148;8.204;2023-04-07T11:21:45;101829.00;;;24.88;20.41
48968;BME280;46511;53.148;8.204;2023-04-07T11:24:34;101830.88;;;27.91;18.65
48968;BME280;46511;53.148;8.204;2023-04-07T11:27:04;101835.97;;;26.64;18.96
48968;BME280;46511;53.148;8.204;2023-04-07T11:29:36;101831.34;;;26.56;19.11
48968;BME280;46511;53.148;8.204;2023-04-07T11:32:08;101832.78;;;27.82;18.75
48968;BME280;46511;53.148;8.204;2023-04-07T11:34:41;101834.72;;;25.82;20.59
48968;BME280;46511;53.148;8.204;2023-04-07T11:37:19;101836.88;;;24.63;21.38
48968;BME280;46511;53.148;8.204;2023-04-07T11:39:55;101848.34;;;24.30;20.79
48968;BME280;46511;53.148;8.204;2023-04-07T11:45:03;101848.88;;;23.11;22.87
48968;BME280;46511;53.148;8.204;2023-04-07T11:47:36;101837.34;;;25.48;20.75
48968;BME280;46511;53.148;8.204;2023-04-07T11:50:09;101829.63;;;25.61;20.47
48968;BME280;46511;53.148;8.204;2023-04-07T11:52:44;101836.38;;;25.31;20.95
48968;BME280;46511;53.148;8.204;2023-04-07T11:57:54;101846.38;;;22.59;23.32
48968;BME280;46511;53.148;8.204;2023-04-07T12:00:25;101852.16;;;24.09;22.29
48968;BME280;46511;53.148;8.204;2023-04-07T12:03:07;101853.28;;;23.50;22.00
48968;BME280;46511;53.148;8.204;2023-04-07T12:05:43;101846.03;;;23.41;22.91
48968;BME280;46511;53.148;8.204;2023-04-07T12:08:15;101847.13;;;23.68;22.48
48968;BME280;46511;53.148;8.204;2023-04-07T12:10:46;101850.66;;;23.78;22.24
48968;BME280;46511;53.148;8.204;2023-04-07T12:13:18;101845.75;;;24.38;22.21
48968;BME280;46511;53.148;8.204;2023-04-07T12:15:49;101852.41;;;25.16;21.79
48968;BME280;46511;53.148;8.204;2023-04-07T12:18:21;101855.19;;;25.06;21.61
48968;BME280;46511;53.148;8.204;2023-04-07T12:20:53;101852.00;;;23.54;23.08
48968;BME280;46511;53.148;8.204;2023-04-07T12:23:24;101844.50;;;24.77;23.52
48968;BME280;46511;53.148;8.204;2023-04-07T12:25:56;101863.59;;;25.57;20.84
48968;BME280;46511;53.148;8.204;2023-04-07T12:28:27;101843.47;;;25.24;20.99
48968;BME280;46511;53.148;8.204;2023-04-07T12:30:59;101856.56;;;23.63;22.59
48968;BME280;46511;53.148;8.204;2023-04-07T12:33:30;101859.59;;;22.52;23.84
48968;BME280;46511;53.148;8.204;2023-04-07T12:36:01;101854.44;;;24.04;21.97
48968;BME280;46511;53.148;8.204;2023-04-07T12:38:33;101850.19;;;25.38;21.11
48968;BME280;46511;53.148;8.204;2023-04-07T12:41:04;101850.25;;;25.02;21.62
48968;BME280;46511;53.148;8.204;2023-04-07T12:43:35;101851.13;;;25.28;20.35
48968;BME280;46511;53.148;8.204;2023-04-07T12:46:07;101861.13;;;23.73;22.59
48968;BME280;46511;53.148;8.204;2023-04-07T12:48:38;101863.00;;;24.09;22.01
48968;BME280;46511;53.148;8.204;2023-04-07T12:51:09;101852.88;;;25.73;21.63
48968;BME280;46511;53.148;8.204;2023-04-07T12:53:41;101870.59;;;24.88;21.27
48968;BME280;46511;53.148;8.204;2023-04-07T12:56:12;101866.97;;;23.00;23.30
48968;BME280;46511;53.148;8.204;2023-04-07T12:58:44;101867.13;;;23.08;23.04
48968;BME280;46511;53.148;8.204;2023-04-07T13:01:15;101857.25;;;26.26;20.75
48968;BME280;46511;53.148;8.204;2023-04-07T13:03:46;101868.59;;;26.13;20.49
48968;BME280;46511;53.148;8.204;2023-04-07T13:06:17;101866.19;;;24.87;20.89
48968;BME280;46511;53.148;8.204;2023-04-07T13:08:49;101858.59;;;24.08;22.34
48968;BME280;46511;53.148;8.204;2023-04-07T13:11:20;101865.44;;;23.17;23.19
48968;BME280;46511;53.148;8.204;2023-04-07T13:13:52;101864.84;;;22.94;23.73
48968;BME280;46511;53.148;8.204;2023-04-07T13:16:23;101862.28;;;23.02;23.63
48968;BME280;46511;53.148;8.204;2023-04-07T13:18:54;101867.09;;;24.78;23.17
48968;BME280;46511;53.148;8.204;2023-04-07T13:21:26;101855.34;;;25.05;21.86
48968;BME280;46511;53.148;8.204;2023-04-07T13:23:57;101861.44;;;24.44;22.20
48968;BME280;46511;53.148;8.204;2023-04-07T13:26:28;101857.53;;;25.63;21.98
48968;BME280;46511;53.148;8.204;2023-04-07T13:29:00;101862.06;;;24.38;22.46
48968;BME280;46511;53.148;8.204;2023-04-07T13:31:31;101861.13;;;24.19;22.39
48968;BME280;46511;53.148;8.204;2023-04-07T13:34:02;101857.44;;;22.96;22.46
48968;BME280;46511;53.148;8.204;2023-04-07T13:36:34;101862.56;;;23.19;22.96